sensor_id;sensor_type;location;lat;lon;timestamp;temperature;humidity
16267;DHT22;8241;48.786;9.250;2022-10-17T00:00:20;15.40;99.90
16267;DHT22;8241;48.786;9.250;2022-10-17T00:02:48;15.30;99.90
16267;DHT22;8241;48.786;9.250;2022-10-17T00:05:15;15.30;99.90
16267;DHT22;8241;48.786;9.250;2022-10-17T00:07:45;15.30;99.90
16267;DHT22;8241;48.786;9.250;2022-10-17T00:10:18;15.20;99.90
16267;DHT22;8241;48.786;9.250;2022-10-17T00:12:45;15.20;99.90
16267;DHT22;8241;48.786;9.250;2022-10-17T00:15:14;15.20;99.90
16267;DHT22;8241;48.786;9.250;2022-10-17T00:17:40;15.20;99.90
16267;DHT22;8241;48.786;9.250;2022-10-17T00:22:48;15.10;99.90
16267;DHT22;8241;48.786;9.250;2022-10-17T00:25:15;15.10;99.90
16267;DHT22;8241;48.786;9.250;2022-10-17T00:27:42;15.10;99.90
16267;DHT22;8241;48.786;9.250;2022-10-17T00:32:59;15.10;99.90
16267;DHT22;8241;48.786;9.250;2022-10-17T00:35:26;15.10;99.90
16267;DHT22;8241;48.786;9.250;2022-10-17T00:38:01;15.00;99.90
16267;DHT22;8241;48.786;9.250;2022-10-17T00:43:18;15.00;99.90
16267;DHT22;8241;48.786;9.250;2022-10-17T00:45:46;15.00;99.90
16267;DHT22;8241;48.786;9.250;2022-10-17T00:48:12;15.00;99.90
16267;DHT22;8241;48.786;9.250;2022-10-17T00:50:41;15.00;99.90
16267;DHT22;8241;48.786;9.250;2022-10-17T00:53:11;15.00;99.90
16267;DHT22;8241;48.786;9.250;2022-10-17T00:55:44;14.90;99.90
16267;DHT22;8241;48.786;9.250;2022-10-17T00:58:13;14.90;99.90
16267;DHT22;8241;48.786;9.250;2022-10-17T01:00:41;14.90;99.90
16267;DHT22;8241;48.786;9.250;2022-10-17T01:03:09;14.90;99.90
16267;DHT22;8241;48.786;9.250;2022-10-17T01:05:35;14.90;99.90
16267;DHT22;8241;48.786;9.250;2022-10-17T01:08:02;14.90;99.90
16267;DHT22;8241;48.786;9.250;2022-10-17T01:10:32;14.90;99.90
16267;DHT22;8241;48.786;9.250;2022-10-17T01:13:07;14.90;99.90
16267;DHT22;8241;48.786;9.250;2022-10-17T01:15:38;14.90;99.90
16267;DHT22;8241;48.786;9.250;2022-10-17T01:18:10;14.80;99.90
16267;DHT22;8241;48.786;9.250;2022-10-17T01:23:50;14.80;99.90
16267;DHT22;8241;48.786;9.250;2022-10-17T01:32:36;14.70;99.90
16267;DHT22;8241;48.786;9.250;2022-10-17T01:35:06;14.60;99.90
16267;DHT22;8241;48.786;9.250;2022-10-17T01:37:38;14.70;99.90
16267;DHT22;8241;48.786;9.250;2022-10-17T01:40:08;14.70;99.90
16267;DHT22;8241;48.786;9.250;2022-10-17T01:42:36;14.70;99.90
16267;DHT22;8241;48.786;9.250;2022-10-17T01:45:07;14.70;99.90
16267;DHT22;8241;48.786;9.250;2022-10-17T01:47:48;14.80;99.90
16267;DHT22;8241;48.786;9.250;2022-10-17T01:50:17;14.80;99.90
16267;DHT22;8241;48.786;9.250;2022-10-17T01:52:47;14.70;99.90
16267;DHT22;8241;48.786;9.250;2022-10-17T01:55:15;14.70;99.90
16267;DHT22;8241;48.786;9.250;2022-10-17T01:57:56;14.60;99.90
16267;DHT22;8241;48.786;9.250;2022-10-17T02:00:25;14.60;99.90
16267;DHT22;8241;48.786;9.250;2022-10-17T02:02:55;14.60;99.90
16267;DHT22;8241;48.786;9.250;2022-10-17T02:07:58;14.60;99.90
16267;DHT22;8241;48.786;9.250;2022-10-17T02:10:28;14.60;99.90
16267;DHT22;8241;48.786;9.250;2022-10-17T02:12:57;14.50;99.90
16267;DHT22;8241;48.786;9.250;2022-10-17T02:15:45;14.40;99.90
16267;DHT22;8241;48.786;9.250;2022-10-17T02:18:22;14.50;99.90
16267;DHT22;8241;48.786;9.250;2022-10-17T02:21:02;14.40;99.90
16267;DHT22;8241;48.786;9.250;2022-10-17T02:23:37;14.30;99.90
16267;DHT22;8241;48.786;9.250;2022-10-17T02:28:57;14.30;99.90
16267;DHT22;8241;48.786;9.250;2022-10-17T02:31:46;14.20;99.90
16267;DHT22;8241;48.786;9.250;2022-10-17T02:34:17;14.10;99.90
16267;DHT22;8241;48.786;9.250;2022-10-17T02:36:49;14.10;99.90
16267;DHT22;8241;48.786;9.250;2022-10-17T02:39:31;14.10;99.90
16267;DHT22;8241;48.786;9.250;2022-10-17T02:41:59;14.10;99.90
16267;DHT22;8241;48.786;9.250;2022-10-17T02:44:27;14.00;99.90
16267;DHT22;8241;48.786;9.250;2022-10-17T02:46:56;14.00;99.90
16267;DHT22;8241;48.786;9.250;2022-10-17T02:49:37;14.00;99.90
16267;DHT22;8241;48.786;9.250;2022-10-17T02:52:07;14.00;99.90
16267;DHT22;8241;48.786;9.250;2022-10-17T02:54:36;13.90;99.90
16267;DHT22;8241;48.786;9.250;2022-10-17T02:57:06;13.90;99.90
16267;DHT22;8241;48.786;9.250;2022-10-17T02:59:49;13.90;99.90
16267;DHT22;8241;48.786;9.250;2022-10-17T03:02:16;13.90;99.90
16267;DHT22;8241;48.786;9.250;2022-10-17T03:07:27;13.80;99.90
16267;DHT22;8241;48.786;9.250;2022-10-17T03:09:54;13.80;99.90
16267;DHT22;8241;48.786;9.250;2022-10-17T03:12:21;13.90;99.90
16267;DHT22;8241;48.786;9.250;2022-10-17T03:14:48;13.80;99.90
16267;DHT22;8241;48.786;9.250;2022-10-17T03:17:17;13.90;99.90
16267;DHT22;8241;48.786;9.250;2022-10-17T03:19:44;13.90;99.90
16267;DHT22;8241;48.786;9.250;2022-10-17T03:22:11;13.90;99.90
16267;DHT22;8241;48.786;9.250;2022-10-17T03:24:41;13.80;99.90
16267;DHT22;8241;48.786;9.250;2022-10-17T03:27:26;13.80;99.90
16267;DHT22;8241;48.786;9.250;2022-10-17T03:29:53;13.80;99.90
16267;DHT22;8241;48.786;9.250;2022-10-17T03:32:20;13.70;99.90
16267;DHT22;8241;48.786;9.250;2022-10-17T03:34:47;13.70;99.90
16267;DHT22;8241;48.786;9.250;2022-10-17T03:37:14;13.70;99.90
16267;DHT22;8241;48.786;9.250;2022-10-17T03:39:44;13.70;99.90
16267;DHT22;8241;48.786;9.250;2022-10-17T03:42:11;13.60;99.90
16267;DHT22;8241;48.786;9.250;2022-10-17T03:44:38;13.60;99.90
16267;DHT22;8241;48.786;9.250;2022-10-17T03:47:05;13.60;99.90
16267;DHT22;8241;48.786;9.250;2022-10-17T03:49:32;13.60;99.90
16267;DHT22;8241;48.786;9.250;2022-10-17T03:51:58;13.50;99.90
16267;DHT22;8241;48.786;9.250;2022-10-17T03:54:26;13.60;99.90
16267;DHT22;8241;48.786;9.250;2022-10-17T03:56:54;13.60;99.90
16267;DHT22;8241;48.786;9.250;2022-10-17T03:59:27;13.60;99.90
16267;DHT22;8241;48.786;9.250;2022-10-17T04:02:01;13.50;99.90
16267;DHT22;8241;48.786;9.250;2022-10-17T04:04:38;13.50;99.90
16267;DHT22;8241;48.786;9.250;2022-10-17T04:07:14;13.50;99.90
16267;DHT22;8241;48.786;9.250;2022-10-17T04:09:44;13.50;99.90
16267;DHT22;8241;48.786;9.250;2022-10-17T04:12:16;13.50;99.90
16267;DHT22;8241;48.786;9.250;2022-10-17T04:17:29;13.50;99.90
16267;DHT22;8241;48.786;9.250;2022-10-17T04:20:04;13.60;99.90
16267;DHT22;8241;48.786;9.250;2022-10-17T04:22:31;13.50;99.90
16267;DHT22;8241;48.786;9.250;2022-10-17T04:25:15;13.50;99.90
16267;DHT22;8241;48.786;9.250;2022-10-17T04:27:50;13.50;99.90
16267;DHT22;8241;48.786;9.250;2022-10-17T04:30:18;13.60;99.90
16267;DHT22;8241;48.786;9.250;2022-10-17T04:32:45;13.50;99.90
16267;DHT22;8241;48.786;9.250;2022-10-17T04:41:09;13.50;99.90
16267;DHT22;8241;48.786;9.250;2022-10-17T04:43:46;13.50;99.90
16267;DHT22;8241;48.786;9.250;2022-10-17T04:46:23;13.40;99.90
16267;DHT22;8241;48.786;9.250;2022-10-17T04:49:04;13.40;99.90
16267;DHT22;8241;48.786;9.250;2022-10-17T04:54:44;13.30;99.90
16267;DHT22;8241;48.786;9.250;2022-10-17T04:57:22;13.30;99.90
16267;DHT22;8241;48.786;9.250;2022-10-17T04:59:58;13.40;99.90
16267;DHT22;8241;48.786;9.250;2022-10-17T05:02:46;13.40;99.90
16267;DHT22;8241;48.786;9.250;2022-10-17T05:05:28;13.40;99.90
16267;DHT22;8241;48.786;9.250;2022-10-17T05:10:56;13.30;99.90
16267;DHT22;8241;48.786;9.250;2022-10-17T05:13:23;13.30;99.90
16267;DHT22;8241;48.786;9.250;2022-10-17T05:15:52;13.20;99.90
16267;DHT22;8241;48.786;9.250;2022-10-17T05:18:34;13.30;99.90
16267;DHT22;8241;48.786;9.250;2022-10-17T05:24:17;13.20;99.90
16267;DHT22;8241;48.786;9.250;2022-10-17T05:29:52;13.30;99.90
16267;DHT22;8241;48.786;9.250;2022-10-17T05:35:20;13.40;99.90
16267;DHT22;8241;48.786;9.250;2022-10-17T05:37:57;13.30;99.90
16267;DHT22;8241;48.786;9.250;2022-10-17T05:43:43;13.40;99.90
16267;DHT22;8241;48.786;9.250;2022-10-17T05:48:56;13.40;99.90
16267;DHT22;8241;48.786;9.250;2022-10-17T05:54:15;13.30;99.90
16267;DHT22;8241;48.786;9.250;2022-10-17T05:56:58;13.30;99.90
16267;DHT22;8241;48.786;9.250;2022-10-17T05:59:30;13.20;99.90
16267;DHT22;8241;48.786;9.250;2022-10-17T06:02:09;13.20;99.90
16267;DHT22;8241;48.786;9.250;2022-10-17T06:04:45;13.20;99.90
16267;DHT22;8241;48.786;9.250;2022-10-17T06:07:15;13.30;99.90
16267;DHT22;8241;48.786;9.250;2022-10-17T06:09:58;13.30;99.90
16267;DHT22;8241;48.786;9.250;2022-10-17T06:12:25;13.30;99.90
16267;DHT22;8241;48.786;9.250;2022-10-17T06:14:58;13.30;99.90
16267;DHT22;8241;48.786;9.250;2022-10-17T06:17:25;13.30;99.90
16267;DHT22;8241;48.786;9.250;2022-10-17T06:23:23;13.30;99.90
16267;DHT22;8241;48.786;9.250;2022-10-17T06:26:15;13.20;99.90
16267;DHT22;8241;48.786;9.250;2022-10-17T06:28:45;13.20;99.90
16267;DHT22;8241;48.786;9.250;2022-10-17T06:31:23;13.30;99.90
16267;DHT22;8241;48.786;9.250;2022-10-17T06:33:57;13.30;99.90
16267;DHT22;8241;48.786;9.250;2022-10-17T06:36:24;13.40;99.90
16267;DHT22;8241;48.786;9.250;2022-10-17T07:00:21;13.40;99.90
16267;DHT22;8241;48.786;9.250;2022-10-17T07:02:53;13.40;99.90
16267;DHT22;8241;48.786;9.250;2022-10-17T07:08:25;13.40;99.90
16267;DHT22;8241;48.786;9.250;2022-10-17T07:22:35;13.90;99.90
16267;DHT22;8241;48.786;9.250;2022-10-17T07:25:09;14.10;99.90
16267;DHT22;8241;48.786;9.250;2022-10-17T07:27:44;14.10;99.90
16267;DHT22;8241;48.786;9.250;2022-10-17T07:30:11;14.20;99.90
16267;DHT22;8241;48.786;9.250;2022-10-17T07:32:55;14.20;99.90
16267;DHT22;8241;48.786;9.250;2022-10-17T07:35:30;14.30;99.90
16267;DHT22;8241;48.786;9.250;2022-10-17T07:38:00;14.30;99.90
16267;DHT22;8241;48.786;9.250;2022-10-17T07:40:42;14.50;99.90
16267;DHT22;8241;48.786;9.250;2022-10-17T07:43:20;14.60;99.90
16267;DHT22;8241;48.786;9.250;2022-10-17T07:45:55;14.70;99.90
16267;DHT22;8241;48.786;9.250;2022-10-17T07:51:05;14.90;99.90
16267;DHT22;8241;48.786;9.250;2022-10-17T07:53:42;15.10;99.90
16267;DHT22;8241;48.786;9.250;2022-10-17T07:56:13;15.20;99.90
16267;DHT22;8241;48.786;9.250;2022-10-17T07:58:47;15.30;99.90
16267;DHT22;8241;48.786;9.250;2022-10-17T08:01:21;15.40;99.90
16267;DHT22;8241;48.786;9.250;2022-10-17T08:06:34;15.50;99.90
16267;DHT22;8241;48.786;9.250;2022-10-17T08:09:02;15.60;99.90
16267;DHT22;8241;48.786;9.250;2022-10-17T08:11:35;15.70;99.90
16267;DHT22;8241;48.786;9.250;2022-10-17T08:14:03;15.90;99.90
16267;DHT22;8241;48.786;9.250;2022-10-17T08:16:31;16.00;99.90
16267;DHT22;8241;48.786;9.250;2022-10-17T08:19:08;16.00;99.90
16267;DHT22;8241;48.786;9.250;2022-10-17T08:24:30;16.30;99.90
16267;DHT22;8241;48.786;9.250;2022-10-17T08:27:04;16.30;99.90
16267;DHT22;8241;48.786;9.250;2022-10-17T08:29:51;16.40;99.90
16267;DHT22;8241;48.786;9.250;2022-10-17T08:35:47;16.60;99.90
16267;DHT22;8241;48.786;9.250;2022-10-17T08:38:20;16.80;99.90
16267;DHT22;8241;48.786;9.250;2022-10-17T08:43:57;17.00;99.90
16267;DHT22;8241;48.786;9.250;2022-10-17T08:46:28;17.20;99.90
16267;DHT22;8241;48.786;9.250;2022-10-17T08:49:09;17.30;99.90
16267;DHT22;8241;48.786;9.250;2022-10-17T08:51:40;17.30;99.90
16267;DHT22;8241;48.786;9.250;2022-10-17T08:54:11;17.40;99.90
16267;DHT22;8241;48.786;9.250;2022-10-17T08:59:41;17.60;99.90
16267;DHT22;8241;48.786;9.250;2022-10-17T09:08:26;18.10;99.90
16267;DHT22;8241;48.786;9.250;2022-10-17T09:11:12;18.20;99.90
16267;DHT22;8241;48.786;9.250;2022-10-17T09:19:11;18.90;99.90
16267;DHT22;8241;48.786;9.250;2022-10-17T09:21:52;19.20;99.90
16267;DHT22;8241;48.786;9.250;2022-10-17T09:24:27;19.80;99.90
16267;DHT22;8241;48.786;9.250;2022-10-17T09:27:02;21.30;99.90
16267;DHT22;8241;48.786;9.250;2022-10-17T09:29:37;23.10;98.10
16267;DHT22;8241;48.786;9.250;2022-10-17T09:32:13;24.40;95.40
16267;DHT22;8241;48.786;9.250;2022-10-17T09:34:49;24.60;94.30
16267;DHT22;8241;48.786;9.250;2022-10-17T09:37:19;25.50;93.30
16267;DHT22;8241;48.786;9.250;2022-10-17T09:39:53;26.20;92.20
16267;DHT22;8241;48.786;9.250;2022-10-17T09:42:36;26.40;91.90
16267;DHT22;8241;48.786;9.250;2022-10-17T09:45:14;26.60;91.50
16267;DHT22;8241;48.786;9.250;2022-10-17T09:47:52;26.30;91.40
16267;DHT22;8241;48.786;9.250;2022-10-17T09:50:24;26.10;91.70
16267;DHT22;8241;48.786;9.250;2022-10-17T09:55:30;26.60;91.90
16267;DHT22;8241;48.786;9.250;2022-10-17T10:00:44;27.60;90.50
16267;DHT22;8241;48.786;9.250;2022-10-17T10:03:22;28.00;89.50
16267;DHT22;8241;48.786;9.250;2022-10-17T10:06:08;27.60;90.00
16267;DHT22;8241;48.786;9.250;2022-10-17T10:11:48;27.50;90.00
16267;DHT22;8241;48.786;9.250;2022-10-17T10:14:28;27.10;90.50
16267;DHT22;8241;48.786;9.250;2022-10-17T10:19:54;26.80;91.00
16267;DHT22;8241;48.786;9.250;2022-10-17T10:22:35;27.40;90.60
16267;DHT22;8241;48.786;9.250;2022-10-17T10:25:07;28.10;90.00
16267;DHT22;8241;48.786;9.250;2022-10-17T10:27:36;28.50;88.50
16267;DHT22;8241;48.786;9.250;2022-10-17T10:30:05;28.10;88.50
16267;DHT22;8241;48.786;9.250;2022-10-17T10:35:41;27.90;89.90
16267;DHT22;8241;48.786;9.250;2022-10-17T10:49:39;24.90;94.30
16267;DHT22;8241;48.786;9.250;2022-10-17T10:52:07;24.80;94.90
16267;DHT22;8241;48.786;9.250;2022-10-17T10:57:43;24.40;95.50
16267;DHT22;8241;48.786;9.250;2022-10-17T11:00:21;24.40;95.30
16267;DHT22;8241;48.786;9.250;2022-10-17T11:02:58;24.60;95.40
16267;DHT22;8241;48.786;9.250;2022-10-17T11:05:38;24.90;95.10
16267;DHT22;8241;48.786;9.250;2022-10-17T11:08:22;25.40;94.10
16267;DHT22;8241;48.786;9.250;2022-10-17T11:11:10;25.80;93.80
16267;DHT22;8241;48.786;9.250;2022-10-17T11:13:44;26.20;93.40
16267;DHT22;8241;48.786;9.250;2022-10-17T11:16:30;26.20;93.00
16267;DHT22;8241;48.786;9.250;2022-10-17T11:19:03;26.10;93.30
16267;DHT22;8241;48.786;9.250;2022-10-17T11:21:44;25.60;94.00
16267;DHT22;8241;48.786;9.250;2022-10-17T11:27:13;25.30;94.50
16267;DHT22;8241;48.786;9.250;2022-10-17T11:32:38;26.00;93.40
16267;DHT22;8241;48.786;9.250;2022-10-17T11:35:14;26.00;93.00
16267;DHT22;8241;48.786;9.250;2022-10-17T11:38:00;26.30;92.60
16267;DHT22;8241;48.786;9.250;2022-10-17T11:45:58;26.30;91.60
16267;DHT22;8241;48.786;9.250;2022-10-17T11:51:36;26.20;92.10
16267;DHT22;8241;48.786;9.250;2022-10-17T11:54:10;26.30;91.90
16267;DHT22;8241;48.786;9.250;2022-10-17T11:56:38;26.60;91.10
16267;DHT22;8241;48.786;9.250;2022-10-17T11:59:32;26.80;90.40
16267;DHT22;8241;48.786;9.250;2022-10-17T12:02:19;26.60;90.80
16267;DHT22;8241;48.786;9.250;2022-10-17T12:05:02;26.40;91.10
16267;DHT22;8241;48.786;9.250;2022-10-17T12:07:41;26.30;91.30
16267;DHT22;8241;48.786;9.250;2022-10-17T12:10:23;26.30;90.60
16267;DHT22;8241;48.786;9.250;2022-10-17T12:19:24;26.20;89.70
16267;DHT22;8241;48.786;9.250;2022-10-17T12:22:05;26.10;87.00
16267;DHT22;8241;48.786;9.250;2022-10-17T12:33:32;25.80;84.60
16267;DHT22;8241;48.786;9.250;2022-10-17T12:41:53;25.90;85.30
16267;DHT22;8241;48.786;9.250;2022-10-17T12:52:57;25.90;84.00
16267;DHT22;8241;48.786;9.250;2022-10-17T12:58:17;26.10;85.80
16267;DHT22;8241;48.786;9.250;2022-10-17T13:00:54;26.10;84.50
16267;DHT22;8241;48.786;9.250;2022-10-17T13:03:23;26.30;84.30
16267;DHT22;8241;48.786;9.250;2022-10-17T13:06:05;26.20;84.80
16267;DHT22;8241;48.786;9.250;2022-10-17T13:11:29;26.30;84.80
16267;DHT22;8241;48.786;9.250;2022-10-17T13:19:47;26.50;84.00
16267;DHT22;8241;48.786;9.250;2022-10-17T13:22:21;26.40;84.40
16267;DHT22;8241;48.786;9.250;2022-10-17T13:33:37;26.00;88.70
16267;DHT22;8241;48.786;9.250;2022-10-17T13:36:16;26.00;91.70
16267;DHT22;8241;48.786;9.250;2022-10-17T13:38:44;25.70;92.40
16267;DHT22;8241;48.786;9.250;2022-10-17T13:41:12;25.60;92.20
16267;DHT22;8241;48.786;9.250;2022-10-17T13:46:17;25.30;92.80
16267;DHT22;8241;48.786;9.250;2022-10-17T13:48:47;25.10;93.40
16267;DHT22;8241;48.786;9.250;2022-10-17T13:54:15;25.00;92.80
16267;DHT22;8241;48.786;9.250;2022-10-17T13:56:44;25.00;93.20
16267;DHT22;8241;48.786;9.250;2022-10-17T13:59:23;25.00;93.10
16267;DHT22;8241;48.786;9.250;2022-10-17T14:01:57;24.90;93.30
16267;DHT22;8241;48.786;9.250;2022-10-17T14:07:12;24.80;93.20
16267;DHT22;8241;48.786;9.250;2022-10-17T14:09:48;24.80;93.10
16267;DHT22;8241;48.786;9.250;2022-10-17T14:12:17;24.80;92.90
16267;DHT22;8241;48.786;9.250;2022-10-17T14:14:52;24.80;93.20
16267;DHT22;8241;48.786;9.250;2022-10-17T14:17:28;25.00;92.90
16267;DHT22;8241;48.786;9.250;2022-10-17T14:20:03;25.20;92.10
16267;DHT22;8241;48.786;9.250;2022-10-17T14:22:35;25.50;91.90
16267;DHT22;8241;48.786;9.250;2022-10-17T14:28:11;25.70;91.80
16267;DHT22;8241;48.786;9.250;2022-10-17T14:33:47;25.40;91.70
16267;DHT22;8241;48.786;9.250;2022-10-17T14:39:02;25.00;91.60
16267;DHT22;8241;48.786;9.250;2022-10-17T14:41:46;25.00;91.40
16267;DHT22;8241;48.786;9.250;2022-10-17T14:44:21;24.90;91.50
16267;DHT22;8241;48.786;9.250;2022-10-17T14:49:48;24.90;92.00
16267;DHT22;8241;48.786;9.250;2022-10-17T14:55:21;25.00;92.10
16267;DHT22;8241;48.786;9.250;2022-10-17T14:57:50;25.20;91.30
16267;DHT22;8241;48.786;9.250;2022-10-17T15:08:44;25.30;91.20
16267;DHT22;8241;48.786;9.250;2022-10-17T15:11:17;25.20;91.60
16267;DHT22;8241;48.786;9.250;2022-10-17T15:13:54;25.00;91.50
16267;DHT22;8241;48.786;9.250;2022-10-17T15:16:22;24.80;92.10
16267;DHT22;8241;48.786;9.250;2022-10-17T15:18:54;24.70;92.30
16267;DHT22;8241;48.786;9.250;2022-10-17T15:24:24;24.40;92.50
16267;DHT22;8241;48.786;9.250;2022-10-17T15:27:00;24.10;92.70
16267;DHT22;8241;48.786;9.250;2022-10-17T15:29:27;24.00;93.20
16267;DHT22;8241;48.786;9.250;2022-10-17T15:31:55;23.80;93.20
16267;DHT22;8241;48.786;9.250;2022-10-17T15:34:31;23.70;93.40
16267;DHT22;8241;48.786;9.250;2022-10-17T15:36:58;23.60;94.10
16267;DHT22;8241;48.786;9.250;2022-10-17T15:39:38;23.40;94.40
16267;DHT22;8241;48.786;9.250;2022-10-17T15:50:39;23.00;95.30
16267;DHT22;8241;48.786;9.250;2022-10-17T15:53:13;22.90;96.00
16267;DHT22;8241;48.786;9.250;2022-10-17T15:58:10;22.70;96.40
16267;DHT22;8241;48.786;9.250;2022-10-17T16:00:44;22.60;97.20
16267;DHT22;8241;48.786;9.250;2022-10-17T16:08:46;22.30;97.80
16267;DHT22;8241;48.786;9.250;2022-10-17T16:11:25;22.30;97.20
16267;DHT22;8241;48.786;9.250;2022-10-17T16:16:27;22.10;98.90
16267;DHT22;8241;48.786;9.250;2022-10-17T16:21:55;21.80;99.80
16267;DHT22;8241;48.786;9.250;2022-10-17T16:24:34;21.60;99.90
16267;DHT22;8241;48.786;9.250;2022-10-17T16:27:07;21.50;99.90
16267;DHT22;8241;48.786;9.250;2022-10-17T16:29:35;21.40;99.90
16267;DHT22;8241;48.786;9.250;2022-10-17T16:32:19;21.40;99.90
16267;DHT22;8241;48.786;9.250;2022-10-17T16:34:50;21.30;99.90
16267;DHT22;8241;48.786;9.250;2022-10-17T16:37:29;21.20;99.90
16267;DHT22;8241;48.786;9.250;2022-10-17T16:40:07;21.10;99.90
16267;DHT22;8241;48.786;9.250;2022-10-17T16:42:41;21.00;99.90
16267;DHT22;8241;48.786;9.250;2022-10-17T16:45:18;20.90;99.90
16267;DHT22;8241;48.786;9.250;2022-10-17T16:47:52;20.80;99.90
16267;DHT22;8241;48.786;9.250;2022-10-17T16:50:19;20.70;99.90
16267;DHT22;8241;48.786;9.250;2022-10-17T16:52:45;20.70;99.90
16267;DHT22;8241;48.786;9.250;2022-10-17T16:55:14;20.60;99.90
16267;DHT22;8241;48.786;9.250;2022-10-17T16:57:47;20.60;99.90
16267;DHT22;8241;48.786;9.250;2022-10-17T17:00:16;20.50;99.90
16267;DHT22;8241;48.786;9.250;2022-10-17T17:02:56;20.50;99.90
16267;DHT22;8241;48.786;9.250;2022-10-17T17:05:35;20.40;99.90
16267;DHT22;8241;48.786;9.250;2022-10-17T17:08:12;20.30;99.90
16267;DHT22;8241;48.786;9.250;2022-10-17T17:10:44;20.20;99.90
16267;DHT22;8241;48.786;9.250;2022-10-17T17:16:24;20.00;99.90
16267;DHT22;8241;48.786;9.250;2022-10-17T17:18:54;20.00;99.90
16267;DHT22;8241;48.786;9.250;2022-10-17T17:21:25;20.00;99.90
16267;DHT22;8241;48.786;9.250;2022-10-17T17:23:52;20.00;99.90
16267;DHT22;8241;48.786;9.250;2022-10-17T17:26:35;20.00;99.90
16267;DHT22;8241;48.786;9.250;2022-10-17T17:29:06;19.90;99.90
16267;DHT22;8241;48.786;9.250;2022-10-17T17:31:33;19.80;99.90
16267;DHT22;8241;48.786;9.250;2022-10-17T17:34:10;19.80;99.90
16267;DHT22;8241;48.786;9.250;2022-10-17T17:36:48;19.70;99.90
16267;DHT22;8241;48.786;9.250;2022-10-17T17:39:18;19.60;99.90
16267;DHT22;8241;48.786;9.250;2022-10-17T17:41:46;19.50;99.90
16267;DHT22;8241;48.786;9.250;2022-10-17T17:47:06;19.30;99.90
16267;DHT22;8241;48.786;9.250;2022-10-17T17:52:34;19.20;99.90
16267;DHT22;8241;48.786;9.250;2022-10-17T18:03:27;19.00;99.90
16267;DHT22;8241;48.786;9.250;2022-10-17T18:06:12;18.90;99.90
16267;DHT22;8241;48.786;9.250;2022-10-17T18:08:53;18.90;99.90
16267;DHT22;8241;48.786;9.250;2022-10-17T18:11:21;18.80;99.90
16267;DHT22;8241;48.786;9.250;2022-10-17T18:13:51;18.70;99.90
16267;DHT22;8241;48.786;9.250;2022-10-17T18:16:18;18.80;99.90
16267;DHT22;8241;48.786;9.250;2022-10-17T18:21:49;18.70;99.90
16267;DHT22;8241;48.786;9.250;2022-10-17T18:27:05;18.50;99.90
16267;DHT22;8241;48.786;9.250;2022-10-17T18:41:21;18.30;99.90
16267;DHT22;8241;48.786;9.250;2022-10-17T18:43:49;18.20;99.90
16267;DHT22;8241;48.786;9.250;2022-10-17T18:46:27;18.20;99.90
16267;DHT22;8241;48.786;9.250;2022-10-17T18:49:00;18.10;99.90
16267;DHT22;8241;48.786;9.250;2022-10-17T18:51:28;18.10;99.90
16267;DHT22;8241;48.786;9.250;2022-10-17T18:57:05;18.10;99.90
16267;DHT22;8241;48.786;9.250;2022-10-17T18:59:38;18.10;99.90
16267;DHT22;8241;48.786;9.250;2022-10-17T19:02:20;18.00;99.90
16267;DHT22;8241;48.786;9.250;2022-10-17T19:04:50;18.00;99.90
16267;DHT22;8241;48.786;9.250;2022-10-17T19:12:42;18.00;99.90
16267;DHT22;8241;48.786;9.250;2022-10-17T19:17:42;17.90;99.90
16267;DHT22;8241;48.786;9.250;2022-10-17T19:23:29;17.90;99.90
16267;DHT22;8241;48.786;9.250;2022-10-17T19:26:04;17.80;99.90
16267;DHT22;8241;48.786;9.250;2022-10-17T19:28:38;17.70;99.90
16267;DHT22;8241;48.786;9.250;2022-10-17T19:31:07;17.80;99.90
16267;DHT22;8241;48.786;9.250;2022-10-17T19:33:34;17.70;99.90
16267;DHT22;8241;48.786;9.250;2022-10-17T19:38:51;17.60;99.90
16267;DHT22;8241;48.786;9.250;2022-10-17T19:41:29;17.50;99.90
16267;DHT22;8241;48.786;9.250;2022-10-17T19:43:58;17.50;99.90
16267;DHT22;8241;48.786;9.250;2022-10-17T19:46:27;17.50;99.90
16267;DHT22;8241;48.786;9.250;2022-10-17T19:51:58;17.50;99.90
16267;DHT22;8241;48.786;9.250;2022-10-17T20:03:10;17.40;99.90
16267;DHT22;8241;48.786;9.250;2022-10-17T20:05:52;17.40;99.90
16267;DHT22;8241;48.786;9.250;2022-10-17T20:08:24;17.30;99.90
16267;DHT22;8241;48.786;9.250;2022-10-17T20:11:04;17.20;99.90
16267;DHT22;8241;48.786;9.250;2022-10-17T20:13:36;17.30;99.90
16267;DHT22;8241;48.786;9.250;2022-10-17T20:16:05;17.30;99.90
16267;DHT22;8241;48.786;9.250;2022-10-17T20:18:51;17.30;99.90
16267;DHT22;8241;48.786;9.250;2022-10-17T20:21:20;17.30;99.90
16267;DHT22;8241;48.786;9.250;2022-10-17T20:23:57;17.40;99.90
16267;DHT22;8241;48.786;9.250;2022-10-17T20:26:43;17.50;99.90
16267;DHT22;8241;48.786;9.250;2022-10-17T20:29:12;17.50;99.90
16267;DHT22;8241;48.786;9.250;2022-10-17T20:34:26;17.40;99.90
16267;DHT22;8241;48.786;9.250;2022-10-17T20:37:03;17.40;99.90
16267;DHT22;8241;48.786;9.250;2022-10-17T20:39:45;17.30;99.90
16267;DHT22;8241;48.786;9.250;2022-10-17T20:44:55;17.30;99.90
16267;DHT22;8241;48.786;9.250;2022-10-17T20:47:29;17.30;99.90
16267;DHT22;8241;48.786;9.250;2022-10-17T20:49:57;17.30;99.90
16267;DHT22;8241;48.786;9.250;2022-10-17T20:52:26;17.20;99.90
16267;DHT22;8241;48.786;9.250;2022-10-17T20:55:00;17.10;99.90
16267;DHT22;8241;48.786;9.250;2022-10-17T21:03:26;16.90;99.90
16267;DHT22;8241;48.786;9.250;2022-10-17T21:08:58;16.80;99.90
16267;DHT22;8241;48.786;9.250;2022-10-17T21:11:27;16.80;99.90
16267;DHT22;8241;48.786;9.250;2022-10-17T21:16:58;16.90;99.90
16267;DHT22;8241;48.786;9.250;2022-10-17T21:19:40;16.80;99.90
16267;DHT22;8241;48.786;9.250;2022-10-17T21:22:07;16.70;99.90
16267;DHT22;8241;48.786;9.250;2022-10-17T21:24:44;16.80;99.90
16267;DHT22;8241;48.786;9.250;2022-10-17T21:27:12;16.80;99.90
16267;DHT22;8241;48.786;9.250;2022-10-17T21:33:08;16.60;99.90
16267;DHT22;8241;48.786;9.250;2022-10-17T21:35:34;16.50;99.90
16267;DHT22;8241;48.786;9.250;2022-10-17T21:38:15;16.50;99.90
16267;DHT22;8241;48.786;9.250;2022-10-17T21:40:54;16.50;99.90
16267;DHT22;8241;48.786;9.250;2022-10-17T21:43:30;16.40;99.90
16267;DHT22;8241;48.786;9.250;2022-10-17T21:46:05;16.40;99.90
16267;DHT22;8241;48.786;9.250;2022-10-17T21:51:04;16.40;99.90
16267;DHT22;8241;48.786;9.250;2022-10-17T21:56:21;16.40;99.90
16267;DHT22;8241;48.786;9.250;2022-10-17T21:58:49;16.30;99.90
16267;DHT22;8241;48.786;9.250;2022-10-17T22:01:18;16.30;99.90
16267;DHT22;8241;48.786;9.250;2022-10-17T22:06:35;16.30;99.90
16267;DHT22;8241;48.786;9.250;2022-10-17T22:09:03;16.30;99.90
16267;DHT22;8241;48.786;9.250;2022-10-17T22:11:32;16.30;99.90
16267;DHT22;8241;48.786;9.250;2022-10-17T22:14:00;16.30;99.90
16267;DHT22;8241;48.786;9.250;2022-10-17T22:16:27;16.30;99.90
16267;DHT22;8241;48.786;9.250;2022-10-17T22:18:54;16.30;99.90
16267;DHT22;8241;48.786;9.250;2022-10-17T22:21:21;16.30;99.90
16267;DHT22;8241;48.786;9.250;2022-10-17T22:26:26;16.30;99.90
16267;DHT22;8241;48.786;9.250;2022-10-17T22:28:55;16.30;99.90
16267;DHT22;8241;48.786;9.250;2022-10-17T22:31:21;16.20;99.90